Warrensburg, IL (62573)

10:55 PM CDT on July 28, 2016 (GMT -0500)
Greenbrier Drive | | Change Station

Elev 652 ft 39.93 °N, 88.98 °W | Updated 48 seconds ago

Clear
Clear
73.4 °F
Feels Like 73 °F
N
0.6
Wind Variable Wind from SW
Gusts 2.5 mph

Today
High -- | Low -- °F
--% Chance of Precip.
Yesterday
High -- | Low -- °F
Precip. -- in
Pressure 29.90 in
Visibility 10.0 miles
Clouds Clear
Heat Index 73 °F
Dew Point 68 °F
Humidity 83%
Rainfall 0.00 in
Snow Depth Not available.
5:51 AM 8:13 PM
Waning Crescent, 26% visible
METAR KDEC 290254Z 00000KT 10SM CLR 22/21 A2991 RMK AO2 SLP123 T02220206 53006
Pressure 29.90 in
Visibility 10.0 miles
Clouds Clear
Heat Index 73 °F
Dew Point 68 °F
Humidity 83%
Rainfall 0.00 in
Snow Depth Not available.
5:51 AM 8:13 PM
Waning Crescent, 26% visible
METAR KDEC 290254Z 00000KT 10SM CLR 22/21 A2991 RMK AO2 SLP123 T02220206 53006

10-Day Weather Forecast

Almanac

Astronomy

Jul. 28, 2016 Rise Set
Actual Time
Civil Twilight
Nautical Twilight
Astronomical Twilight
Moon
Length of Visible Light
Length of Day
Tomorrow will be .
, % of the Moon is Illuminated

Today's Extremes

State Highs State Lows

Community

WunderPhotos

Upload Photos

1,928,286 photos uploaded!

WunderBlog® & News

Nearby

Air Quality

  Air Quality AQ Index Pollutant
Not available.

Snow Depth

Station Depth Elevation

Earthquake Activity

City Distance Mag. Time & Date
Minimum magnitude displayed is 2.5.

Coastal Water Temperatures

Place Temperature

Stations

Nearby Weather Stations

Station Location Temp. Windchill Dew Point Humidity Wind Precip. Elev Updated Type
                   

Watches & Warnings

There are currently no watches in effect.